createdAt,value
2022-11-22T00:02:09.679Z,12.53
2022-11-22T00:04:36.901Z,13.30
2022-11-22T00:07:03.467Z,13.20
2022-11-22T00:09:30.334Z,12.60
2022-11-22T00:11:57.053Z,11.87
2022-11-22T00:14:23.592Z,12.13
2022-11-22T00:16:50.161Z,12.30
2022-11-22T00:19:16.645Z,12.43
2022-11-22T00:21:43.241Z,12.93
2022-11-22T00:24:12.213Z,13.13
2022-11-22T00:26:38.772Z,12.07
2022-11-22T00:29:05.347Z,12.40
2022-11-22T00:31:31.991Z,11.97
2022-11-22T00:33:58.481Z,12.43
2022-11-22T00:36:25.236Z,12.40
2022-11-22T00:38:52.819Z,12.40
2022-11-22T00:41:19.333Z,12.83
2022-11-22T00:43:45.824Z,12.20
2022-11-22T00:46:12.303Z,12.30
2022-11-22T00:48:38.801Z,12.57
2022-11-22T00:51:05.330Z,12.07
2022-11-22T00:53:31.871Z,12.83
2022-11-22T00:55:58.350Z,13.03
2022-11-22T00:58:24.970Z,12.50
2022-11-22T01:00:56.240Z,13.47
2022-11-22T01:03:23.392Z,13.20
2022-11-22T01:05:49.871Z,12.67
2022-11-22T01:08:16.404Z,13.10
2022-11-22T01:10:42.952Z,13.63
2022-11-22T01:13:10.129Z,13.60
2022-11-22T01:15:36.703Z,13.20
2022-11-22T01:18:03.407Z,14.53
2022-11-22T01:20:30.914Z,13.37
2022-11-22T01:22:58.025Z,13.57
2022-11-22T01:25:24.578Z,14.33
2022-11-22T01:27:51.099Z,13.77
2022-11-22T01:30:17.874Z,13.43
2022-11-22T01:32:44.992Z,14.10
2022-11-22T01:35:11.732Z,13.40
2022-11-22T01:37:38.273Z,14.47
2022-11-22T01:40:05.146Z,14.80
2022-11-22T01:43:06.961Z,13.67
2022-11-22T01:45:39.301Z,13.53
2022-11-22T01:48:07.476Z,13.73
2022-11-22T01:50:36.735Z,14.27
2022-11-22T01:53:09.407Z,14.47
2022-11-22T01:55:36.510Z,15.63
2022-11-22T01:58:03.302Z,15.00
2022-11-22T02:00:29.788Z,14.47
2022-11-22T02:02:58.489Z,14.70
2022-11-22T02:05:27.400Z,15.20
2022-11-22T02:07:58.975Z,14.23
2022-11-22T02:10:27.688Z,15.50
2022-11-22T02:12:55.624Z,14.57
2022-11-22T02:15:22.106Z,15.27
2022-11-22T02:17:48.605Z,15.57
2022-11-22T02:20:17.214Z,15.27
2022-11-22T02:22:48.433Z,15.27
2022-11-22T02:25:36.560Z,15.63
2022-11-22T02:28:06.181Z,15.93
2022-11-22T02:30:32.715Z,15.97
2022-11-22T02:32:59.196Z,15.50
2022-11-22T02:35:26.745Z,15.93
2022-11-22T02:37:59.431Z,15.20
2022-11-22T02:40:27.634Z,16.13
2022-11-22T02:42:56.579Z,14.83
2022-11-22T02:45:23.130Z,14.03
2022-11-22T02:47:49.707Z,16.20
2022-11-22T02:50:16.320Z,15.43
2022-11-22T02:52:42.814Z,15.60
2022-11-22T02:55:09.363Z,16.90
2022-11-22T02:57:35.974Z,16.07
2022-11-22T03:00:02.669Z,15.87
2022-11-22T03:02:29.154Z,16.03
2022-11-22T03:04:55.663Z,16.17
2022-11-22T03:07:22.208Z,15.67
2022-11-22T03:09:48.741Z,16.27
2022-11-22T03:12:15.243Z,16.60
2022-11-22T03:14:42.813Z,17.00
2022-11-22T03:17:09.328Z,16.30
2022-11-22T03:19:35.828Z,15.90
2022-11-22T03:22:02.371Z,16.37
2022-11-22T03:24:29.128Z,16.53
2022-11-22T03:26:55.635Z,17.40
2022-11-22T03:29:22.133Z,17.47
2022-11-22T03:31:48.721Z,17.33
2022-11-22T03:34:15.816Z,17.83
2022-11-22T03:36:42.480Z,17.60
2022-11-22T03:39:08.991Z,16.80
2022-11-22T03:41:35.489Z,16.53
2022-11-22T03:44:02.031Z,16.83
2022-11-22T03:46:28.574Z,16.37
2022-11-22T03:48:55.085Z,16.90
2022-11-22T03:51:21.598Z,16.63
2022-11-22T03:53:48.117Z,15.63
2022-11-22T03:56:14.640Z,16.50
2022-11-22T03:58:41.187Z,17.33
2022-11-22T04:01:10.741Z,16.90
2022-11-22T04:03:39.913Z,15.87
2022-11-22T04:06:06.493Z,15.53
2022-11-22T04:08:33.134Z,15.80
2022-11-22T04:10:59.669Z,17.60
2022-11-22T04:13:46.094Z,16.67
2022-11-22T04:16:12.604Z,16.63
2022-11-22T04:18:39.083Z,21.00
2022-11-22T04:21:24.268Z,17.57
2022-11-22T04:24:10.729Z,16.90
2022-11-22T04:26:37.292Z,16.60
2022-11-22T04:29:09.849Z,15.77
2022-11-22T04:31:55.760Z,15.70
2022-11-22T04:34:22.247Z,16.50
2022-11-22T04:36:48.782Z,16.33
2022-11-22T04:39:15.268Z,15.77
2022-11-22T04:41:41.790Z,15.83
2022-11-22T04:44:27.918Z,15.47
2022-11-22T04:46:54.538Z,16.37
2022-11-22T04:49:21.091Z,16.20
2022-11-22T04:52:06.288Z,16.37
2022-11-22T04:54:32.765Z,16.27
2022-11-22T04:56:59.245Z,15.10
2022-11-22T04:59:25.734Z,17.30
2022-11-22T05:01:52.751Z,16.57
2022-11-22T05:04:19.325Z,17.03
2022-11-22T05:06:45.825Z,17.00
2022-11-22T05:09:12.431Z,15.90
2022-11-22T05:11:38.933Z,16.20
2022-11-22T05:14:05.477Z,16.97
2022-11-22T05:16:32.129Z,15.93
2022-11-22T05:19:01.520Z,16.83
2022-11-22T05:21:28.898Z,17.50
2022-11-22T05:23:55.952Z,16.53
2022-11-22T05:26:23.331Z,16.13
2022-11-22T05:28:50.183Z,16.67
2022-11-22T05:31:17.818Z,17.63
2022-11-22T05:33:45.244Z,16.40
2022-11-22T05:36:12.306Z,17.43
2022-11-22T05:38:38.885Z,17.40
2022-11-22T05:41:06.521Z,15.80
2022-11-22T05:43:33.294Z,16.90
2022-11-22T05:46:07.394Z,16.80
2022-11-22T05:48:33.950Z,17.50
2022-11-22T05:51:03.885Z,17.10
2022-11-22T05:53:30.390Z,17.40
2022-11-22T05:55:56.883Z,16.47
2022-11-22T05:58:23.389Z,16.70
2022-11-22T06:00:49.876Z,20.07
2022-11-22T06:03:16.384Z,17.87
2022-11-22T06:05:42.895Z,16.77
2022-11-22T06:08:09.938Z,16.87
2022-11-22T06:10:37.255Z,15.83
2022-11-22T06:13:03.774Z,16.80
2022-11-22T06:15:30.405Z,15.80
2022-11-22T06:17:56.925Z,16.50
2022-11-22T06:20:23.434Z,15.83
2022-11-22T06:22:49.971Z,15.90
2022-11-22T06:25:16.502Z,16.10
2022-11-22T06:27:42.975Z,16.63
2022-11-22T06:30:09.659Z,15.97
2022-11-22T06:32:36.237Z,17.03
2022-11-22T06:35:03.152Z,16.57
2022-11-22T06:37:29.952Z,17.13
2022-11-22T06:39:56.482Z,15.83
2022-11-22T06:42:23.024Z,15.53
2022-11-22T06:44:49.564Z,16.07
2022-11-22T06:47:17.564Z,16.17
2022-11-22T06:49:45.303Z,17.67
2022-11-22T06:52:11.982Z,15.47
2022-11-22T06:54:38.519Z,15.73
2022-11-22T06:57:05.029Z,16.87
2022-11-22T06:59:31.791Z,16.97
2022-11-22T07:02:04.501Z,15.93
2022-11-22T07:04:32.727Z,16.90
2022-11-22T07:06:59.206Z,17.27
2022-11-22T07:09:25.834Z,17.07
2022-11-22T07:11:52.360Z,17.00
2022-11-22T07:14:18.961Z,16.97
2022-11-22T07:16:45.478Z,18.60
2022-11-22T07:19:11.969Z,25.20
2022-11-22T07:21:38.537Z,18.33
2022-11-22T07:24:05.750Z,16.70
2022-11-22T07:26:32.284Z,16.43
2022-11-22T07:28:58.786Z,16.20
2022-11-22T07:31:26.201Z,15.77
2022-11-22T07:33:52.690Z,17.30
2022-11-22T07:36:21.040Z,14.83
2022-11-22T07:38:48.552Z,16.40
2022-11-22T07:41:15.624Z,16.70
2022-11-22T07:43:42.489Z,15.37
2022-11-22T07:46:17.119Z,16.10
2022-11-22T07:48:43.622Z,15.53
2022-11-22T07:51:10.094Z,16.73
2022-11-22T07:53:36.656Z,16.20
2022-11-22T07:56:03.832Z,15.73
2022-11-22T07:58:30.534Z,16.43
2022-11-22T08:00:57.015Z,16.80
2022-11-22T08:03:28.593Z,16.47
2022-11-22T08:06:02.722Z,15.83
2022-11-22T08:08:29.457Z,15.67
2022-11-22T08:10:55.979Z,16.77
2022-11-22T08:13:22.816Z,14.83
2022-11-22T08:15:49.713Z,16.20
2022-11-22T08:18:16.365Z,17.17
2022-11-22T08:20:42.917Z,16.33
2022-11-22T08:23:09.498Z,15.53
2022-11-22T08:25:36.098Z,17.13
2022-11-22T08:28:02.613Z,15.03
2022-11-22T08:30:29.142Z,16.30
2022-11-22T08:32:55.912Z,16.37
2022-11-22T08:35:22.774Z,15.53
2022-11-22T08:37:49.295Z,16.47
2022-11-22T08:40:15.795Z,14.90
2022-11-22T08:42:42.316Z,14.60
2022-11-22T08:45:08.982Z,15.40
2022-11-22T08:47:35.591Z,15.20
2022-11-22T08:50:02.104Z,15.13
2022-11-22T08:52:28.691Z,15.63
2022-11-22T08:54:55.213Z,16.50
2022-11-22T08:57:21.750Z,16.43
2022-11-22T08:59:48.298Z,14.33
2022-11-22T09:02:14.890Z,15.03
2022-11-22T09:04:41.399Z,15.37
2022-11-22T09:09:54.871Z,17.07
2022-11-22T09:12:21.556Z,16.17
2022-11-22T09:14:48.039Z,15.37
2022-11-22T09:17:17.784Z,16.97
2022-11-22T09:19:44.818Z,16.17
2022-11-22T09:22:11.311Z,15.90
2022-11-22T09:24:37.852Z,15.33
2022-11-22T09:27:04.342Z,15.10
2022-11-22T09:29:31.133Z,15.70
2022-11-22T09:31:57.881Z,14.50
2022-11-22T09:34:24.423Z,14.97
2022-11-22T09:36:50.983Z,16.23
2022-11-22T09:39:17.531Z,16.40
2022-11-22T09:41:43.994Z,14.70
2022-11-22T09:44:18.900Z,15.60
2022-11-22T09:46:51.762Z,17.20
2022-11-22T09:49:21.029Z,18.97
2022-11-22T09:51:52.412Z,27.93
2022-11-22T09:54:22.559Z,27.27
2022-11-22T09:56:51.603Z,18.10
2022-11-22T09:59:28.564Z,14.63
2022-11-22T10:01:55.283Z,15.57
2022-11-22T10:04:40.329Z,14.27
2022-11-22T10:07:15.244Z,14.33
2022-11-22T10:09:47.952Z,15.10
2022-11-22T10:12:32.033Z,15.47
2022-11-22T10:15:11.630Z,14.30
2022-11-22T10:17:41.149Z,14.77
2022-11-22T10:20:15.434Z,15.33
2022-11-22T10:22:42.032Z,13.67
2022-11-22T10:25:16.748Z,14.43
2022-11-22T10:27:45.182Z,15.37
2022-11-22T10:30:16.375Z,15.87
2022-11-22T10:32:45.883Z,14.20
2022-11-22T10:35:18.566Z,18.23
2022-11-22T10:37:51.079Z,17.67
2022-11-22T10:40:21.268Z,15.63
2022-11-22T10:42:59.051Z,13.80
2022-11-22T10:45:25.555Z,13.87
2022-11-22T10:48:01.431Z,13.23
2022-11-22T10:50:35.458Z,14.77
2022-11-22T10:53:09.609Z,14.43
2022-11-22T10:55:57.389Z,14.17
2022-11-22T10:58:26.941Z,13.93
2022-11-22T11:01:13.672Z,14.30
2022-11-22T11:03:43.086Z,14.70
2022-11-22T11:06:24.438Z,14.57
2022-11-22T11:10:02.861Z,14.23
2022-11-22T11:11:45.298Z,15.20
2022-11-22T11:14:37.850Z,14.53
2022-11-22T11:17:05.378Z,14.97
2022-11-22T11:19:34.051Z,14.73
2022-11-22T11:22:09.637Z,18.65
2022-11-22T11:24:37.982Z,19.00
2022-11-22T11:27:04.781Z,17.00
2022-11-22T11:29:54.487Z,15.83
2022-11-22T11:32:21.394Z,16.37
2022-11-22T11:35:17.191Z,13.77
2022-11-22T11:37:43.718Z,14.90
2022-11-22T11:40:29.870Z,15.20
2022-11-22T11:43:11.334Z,14.97
2022-11-22T11:45:37.841Z,13.97
2022-11-22T11:48:04.578Z,15.33
2022-11-22T11:50:31.335Z,15.63
2022-11-22T11:53:04.860Z,15.53
2022-11-22T11:55:33.565Z,15.33
2022-11-22T11:58:01.761Z,15.60
2022-11-22T12:00:35.146Z,16.20
2022-11-22T12:03:05.330Z,15.90
2022-11-22T12:05:32.883Z,15.33
2022-11-22T12:08:00.664Z,15.33
2022-11-22T12:10:30.559Z,15.90
2022-11-22T12:13:13.780Z,15.90
2022-11-22T12:15:46.487Z,15.73
2022-11-22T12:18:28.100Z,16.20
2022-11-22T12:21:13.982Z,15.63
2022-11-22T12:23:50.716Z,16.17
2022-11-22T12:26:18.014Z,15.17
2022-11-22T12:28:44.560Z,16.03
2022-11-22T12:31:20.252Z,16.23
2022-11-22T12:34:04.822Z,16.60
2022-11-22T12:36:49.011Z,15.03
2022-11-22T12:39:18.018Z,16.80
2022-11-22T12:41:46.291Z,16.50
2022-11-22T12:44:20.481Z,16.43
2022-11-22T12:46:50.053Z,16.53
2022-11-22T12:49:34.794Z,16.40
2022-11-22T12:52:04.095Z,16.43
2022-11-22T12:54:37.560Z,17.03
2022-11-22T12:57:07.699Z,16.27
2022-11-22T12:59:52.937Z,16.80
2022-11-22T13:02:42.568Z,16.63
2022-11-22T13:05:09.059Z,15.77
2022-11-22T13:07:35.570Z,16.43
2022-11-22T13:10:05.465Z,15.67
2022-11-22T13:12:34.275Z,16.10
2022-11-22T13:15:01.761Z,16.47
2022-11-22T13:17:33.114Z,17.53
2022-11-22T13:20:01.812Z,16.37
2022-11-22T13:22:46.869Z,16.27
2022-11-22T13:25:32.066Z,15.43
2022-11-22T13:28:00.775Z,15.90
2022-11-22T13:30:28.815Z,16.27
2022-11-22T13:32:56.918Z,15.90
2022-11-22T13:35:23.401Z,16.77
2022-11-22T13:37:50.987Z,16.53
2022-11-22T13:40:28.963Z,17.47
2022-11-22T13:43:17.891Z,16.93
2022-11-22T13:45:48.890Z,19.17
2022-11-22T13:48:45.673Z,22.60
2022-11-22T13:51:18.628Z,18.70
2022-11-22T13:53:46.319Z,23.40
2022-11-22T13:56:15.655Z,27.50
2022-11-22T13:58:51.026Z,21.50
2022-11-22T14:01:36.417Z,18.10
2022-11-22T14:04:21.074Z,17.57
2022-11-22T14:06:59.839Z,18.33
2022-11-22T14:09:29.159Z,16.67
2022-11-22T14:12:10.726Z,17.83
2022-11-22T14:14:37.188Z,17.03
2022-11-22T14:17:04.885Z,17.43
2022-11-22T14:19:53.491Z,16.80
2022-11-22T14:22:23.073Z,15.60
2022-11-22T14:24:58.751Z,16.70
2022-11-22T14:27:28.124Z,15.63
2022-11-22T14:29:54.723Z,15.63
2022-11-22T14:32:22.531Z,15.57
2022-11-22T14:35:04.310Z,17.07
2022-11-22T14:37:33.783Z,16.40
2022-11-22T14:40:06.452Z,16.07
2022-11-22T14:42:40.514Z,16.33
2022-11-22T14:45:06.972Z,17.80
2022-11-22T14:47:34.814Z,16.83
2022-11-22T14:50:02.475Z,16.83
2022-11-22T14:52:31.730Z,15.93
2022-11-22T14:54:59.676Z,17.67
2022-11-22T14:57:27.543Z,16.73
2022-11-22T14:59:53.977Z,17.37
2022-11-22T15:02:54.916Z,17.37
2022-11-22T15:09:15.364Z,17.60
2022-11-22T15:09:19.184Z,17.70
2022-11-22T15:11:27.315Z,16.70
2022-11-22T15:14:08.798Z,16.67
2022-11-22T15:59:43.152Z,17.97
2022-11-22T16:02:14.655Z,26.50
2022-11-22T16:04:46.467Z,19.00
2022-11-22T16:07:23.992Z,19.63
2022-11-22T16:09:51.428Z,19.73
2022-11-22T16:12:37.008Z,18.57
2022-11-22T16:15:22.060Z,18.43
2022-11-22T16:17:52.807Z,18.13
2022-11-22T16:20:24.381Z,21.87
2022-11-22T16:23:04.140Z,25.63
2022-11-22T16:25:31.944Z,19.87
2022-11-22T16:27:59.975Z,19.03
2022-11-22T16:30:26.662Z,19.20
2022-11-22T16:32:58.511Z,18.60
2022-11-22T16:35:29.823Z,18.37
2022-11-22T16:37:56.533Z,19.70
2022-11-22T16:40:23.044Z,17.23
2022-11-22T16:42:49.599Z,20.30
2022-11-22T16:45:17.817Z,18.33
2022-11-22T16:47:44.814Z,18.60
2022-11-22T16:50:15.216Z,23.50
2022-11-22T16:52:42.491Z,20.77
2022-11-22T16:55:15.825Z,18.87
2022-11-22T16:57:42.277Z,19.63
2022-11-22T17:00:09.551Z,22.30
2022-11-22T17:02:37.385Z,18.93
2022-11-22T17:05:04.096Z,18.77
2022-11-22T17:07:30.685Z,20.40
2022-11-22T17:09:57.686Z,20.73
2022-11-22T17:12:32.020Z,19.60
2022-11-22T17:15:00.255Z,19.17
2022-11-22T17:17:26.758Z,18.83
2022-11-22T17:19:53.967Z,19.93
2022-11-22T17:22:20.833Z,19.47
2022-11-22T17:24:47.341Z,18.80
2022-11-22T17:27:14.181Z,19.03
2022-11-22T17:29:56.231Z,19.00
2022-11-22T17:32:22.766Z,20.87
2022-11-22T17:34:49.341Z,19.17
2022-11-22T17:37:15.836Z,18.93
2022-11-22T17:39:42.343Z,19.37
2022-11-22T17:42:08.867Z,19.80
2022-11-22T17:44:35.352Z,19.30
2022-11-22T17:47:02.053Z,19.53
2022-11-22T17:49:29.018Z,21.43
2022-11-22T17:51:55.787Z,21.03
2022-11-22T17:54:22.352Z,19.43
2022-11-22T17:56:48.884Z,20.33
2022-11-22T17:59:15.426Z,19.27
2022-11-22T18:01:43.202Z,20.43
2022-11-22T18:04:09.788Z,20.27
2022-11-22T18:06:36.300Z,21.37
2022-11-22T18:09:02.973Z,19.43
2022-11-22T18:11:29.620Z,19.57
2022-11-22T18:13:56.068Z,20.50
2022-11-22T18:16:28.295Z,19.97
2022-11-22T18:18:57.561Z,21.27
2022-11-22T18:21:24.623Z,19.83
2022-11-22T18:23:51.219Z,20.67
2022-11-22T18:31:53.185Z,23.17
2022-11-22T18:34:20.517Z,22.63
2022-11-22T18:36:55.189Z,22.37
2022-11-22T18:39:22.951Z,22.80
2022-11-22T18:41:49.502Z,23.10
2022-11-22T18:44:16.133Z,23.53
2022-11-22T18:46:42.720Z,20.37
2022-11-22T18:49:09.934Z,22.10
2022-11-22T18:51:36.436Z,25.57
2022-11-22T18:54:03.117Z,21.93
2022-11-22T18:56:29.840Z,21.50
2022-11-22T18:58:56.412Z,21.50
2022-11-22T19:01:23.664Z,21.57
2022-11-22T19:03:50.162Z,22.20
2022-11-22T19:06:18.734Z,21.80
2022-11-22T19:08:45.820Z,22.40
2022-11-22T19:11:12.360Z,24.97
2022-11-22T19:13:39.993Z,27.33
2022-11-22T19:16:11.193Z,26.47
2022-11-22T19:18:42.773Z,25.53
2022-11-22T19:21:10.848Z,25.60
2022-11-22T19:23:37.575Z,23.40
2022-11-22T19:26:05.136Z,29.80
2022-11-22T19:28:32.219Z,24.10
2022-11-22T19:31:07.683Z,23.17
2022-11-22T19:33:34.869Z,21.83
2022-11-22T19:36:02.974Z,22.53
2022-11-22T19:38:29.492Z,21.73
2022-11-22T19:40:56.303Z,20.27
2022-11-22T19:43:22.847Z,20.60
2022-11-22T19:45:49.333Z,19.30
2022-11-22T19:48:16.711Z,20.87
2022-11-22T19:50:43.628Z,20.53
2022-11-22T19:53:10.553Z,20.63
2022-11-22T19:55:42.213Z,21.43
2022-11-22T19:58:11.738Z,20.60
2022-11-22T20:00:38.216Z,21.87
2022-11-22T20:03:04.771Z,22.13
2022-11-22T20:05:32.250Z,21.03
2022-11-22T20:07:59.335Z,21.10
2022-11-22T20:10:26.084Z,25.30
2022-11-22T20:12:52.619Z,26.33
2022-11-22T20:15:19.174Z,26.70
2022-11-22T20:17:45.633Z,24.33
2022-11-22T20:20:12.200Z,22.17
2022-11-22T20:22:38.806Z,21.43
2022-11-22T20:25:05.890Z,22.13
2022-11-22T20:27:32.455Z,22.17
2022-11-22T20:30:01.344Z,21.67
2022-11-22T20:32:28.817Z,22.10
2022-11-22T20:34:55.405Z,23.77
2022-11-22T20:37:21.895Z,26.57
2022-11-22T20:39:48.404Z,23.87
2022-11-22T20:45:01.579Z,23.93
2022-11-22T20:47:28.007Z,22.27
2022-11-22T20:49:54.485Z,22.80
2022-11-22T20:52:20.943Z,21.17
2022-11-22T20:54:47.427Z,21.53
2022-11-22T20:57:13.941Z,27.70
2022-11-22T20:59:40.470Z,23.77
2022-11-22T21:02:09.476Z,23.47
2022-11-22T21:04:36.172Z,21.63
2022-11-22T21:07:02.698Z,21.23
2022-11-22T21:09:29.220Z,22.03
2022-11-22T21:11:55.762Z,20.93
2022-11-22T21:14:22.257Z,22.70
2022-11-22T21:16:48.699Z,22.83
2022-11-22T21:19:15.174Z,21.37
2022-11-22T21:21:41.615Z,22.23
2022-11-22T21:24:08.209Z,22.50
2022-11-22T21:26:34.849Z,21.80
2022-11-22T21:29:03.306Z,24.20
2022-11-22T21:31:29.768Z,23.60
2022-11-22T21:33:56.292Z,20.87
2022-11-22T21:36:22.830Z,22.47
2022-11-22T21:38:49.346Z,22.67
2022-11-22T21:41:39.759Z,23.50
2022-11-22T21:44:03.532Z,22.17
2022-11-22T21:46:30.024Z,20.90
2022-11-22T21:48:56.613Z,21.43
2022-11-22T21:51:25.779Z,21.73
2022-11-22T21:53:55.664Z,20.63
2022-11-22T21:56:22.297Z,19.73
2022-11-22T21:58:48.783Z,21.20
2022-11-22T22:01:15.304Z,19.80
2022-11-22T22:03:41.882Z,20.27
2022-11-22T22:06:09.122Z,20.23
2022-11-22T22:08:36.269Z,20.00
2022-11-22T22:11:07.354Z,19.20
2022-11-22T22:13:33.820Z,20.43
2022-11-22T22:16:03.778Z,21.17
2022-11-22T22:18:31.523Z,20.10
2022-11-22T22:21:10.856Z,19.17
2022-11-22T22:23:38.008Z,19.10
2022-11-22T22:26:06.264Z,19.27
2022-11-22T22:28:33.787Z,19.20
2022-11-22T22:31:21.475Z,21.23
2022-11-22T22:33:48.924Z,21.27
2022-11-22T22:36:15.383Z,18.97
2022-11-22T22:38:41.944Z,19.90
2022-11-22T22:41:10.000Z,21.00
2022-11-22T22:43:37.830Z,20.57
2022-11-22T22:46:06.620Z,20.07
2022-11-22T22:48:33.554Z,19.87
2022-11-22T22:51:07.045Z,19.47
2022-11-22T22:53:33.628Z,18.27
2022-11-22T22:56:01.016Z,19.27
2022-11-22T22:58:29.929Z,20.23
2022-11-22T23:01:03.539Z,20.30
2022-11-22T23:03:30.201Z,20.20
2022-11-22T23:05:56.679Z,19.97
2022-11-22T23:08:23.140Z,20.23
2022-11-22T23:10:49.593Z,19.60
2022-11-22T23:13:16.060Z,19.10
2022-11-22T23:15:57.499Z,17.70
2022-11-22T23:18:24.604Z,18.90
2022-11-22T23:20:51.113Z,19.00
2022-11-22T23:23:17.553Z,19.87
2022-11-22T23:25:44.063Z,18.93
2022-11-22T23:28:10.521Z,19.20
2022-11-22T23:30:37.003Z,19.70
2022-11-22T23:33:03.560Z,20.03
2022-11-22T23:35:30.086Z,19.80
2022-11-22T23:37:56.615Z,19.50
2022-11-22T23:40:23.118Z,19.00
2022-11-22T23:42:49.590Z,18.27
2022-11-22T23:45:16.087Z,18.67
2022-11-22T23:47:42.551Z,18.67
2022-11-22T23:50:09.283Z,18.90
2022-11-22T23:52:35.796Z,18.50
2022-11-22T23:55:02.301Z,18.20
2022-11-22T23:57:29.293Z,19.13
2022-11-22T23:59:55.870Z,18.93
